createdAt,value
2022-09-20T00:01:35.799Z,98726.09
2022-09-20T00:04:08.149Z,98721.56
2022-09-20T00:06:36.739Z,98714.19
2022-09-20T00:09:06.222Z,98714.19
2022-09-20T00:11:36.325Z,98711.78
2022-09-20T00:14:08.615Z,98709.28
2022-09-20T00:16:41.192Z,98712.88
2022-09-20T00:19:19.903Z,98706.06
2022-09-20T00:21:48.557Z,98709.50
2022-09-20T00:24:17.090Z,98708.63
2022-09-20T00:26:45.300Z,98704.50
2022-09-20T00:29:13.776Z,98707.84
2022-09-20T00:31:42.794Z,98712.16
2022-09-20T00:34:30.417Z,98713.84
2022-09-20T00:36:58.676Z,98714.09
2022-09-20T00:39:27.175Z,98712.56
2022-09-20T00:41:55.398Z,98713.50
2022-09-20T00:44:49.242Z,98706.59
2022-09-20T00:47:27.157Z,98710.13
2022-09-20T00:50:05.036Z,98711.69
2022-09-20T00:52:33.763Z,98708.34
2022-09-20T00:55:04.637Z,98701.34
2022-09-20T00:57:35.305Z,98705.66
2022-09-20T01:00:07.162Z,98703.31
2022-09-20T01:02:38.874Z,98709.25
2022-09-20T01:05:10.903Z,98703.41
2022-09-20T01:07:40.022Z,98699.97
2022-09-20T01:10:09.239Z,98706.81
2022-09-20T01:12:40.612Z,98707.31
2022-09-20T01:15:11.090Z,98710.28
2022-09-20T01:17:45.605Z,98701.78
2022-09-20T01:20:22.419Z,98700.84
2022-09-20T01:23:09.458Z,98706.91
2022-09-20T01:26:17.769Z,98711.97
2022-09-20T01:28:50.190Z,98709.31
2022-09-20T01:31:25.405Z,98705.78
2022-09-20T01:33:59.747Z,98705.25
2022-09-20T01:36:35.837Z,98702.59
2022-09-20T01:39:13.342Z,98692.41
2022-09-20T01:41:48.477Z,98700.09
2022-09-20T01:44:26.859Z,98697.56
2022-09-20T01:47:02.019Z,98700.16
2022-09-20T01:49:42.209Z,98703.59
2022-09-20T01:52:57.202Z,98707.03
2022-09-20T01:55:50.618Z,98702.97
2022-09-20T01:59:22.661Z,98697.63
2022-09-20T02:02:09.944Z,98703.03
2022-09-20T02:05:05.833Z,98698.03
2022-09-20T02:08:07.145Z,98697.72
2022-09-20T02:11:10.494Z,98693.50
2022-09-20T02:14:05.826Z,98695.19
2022-09-20T02:16:50.564Z,98703.94
2022-09-20T02:19:35.553Z,98705.25
2022-09-20T02:22:22.388Z,98699.66
2022-09-20T02:25:03.397Z,98697.81
2022-09-20T02:27:42.717Z,98706.50
2022-09-20T02:30:24.124Z,98698.91
2022-09-20T02:33:16.836Z,98699.91
2022-09-20T02:36:11.237Z,98693.75
2022-09-20T02:38:58.748Z,98699.03
2022-09-20T02:42:04.170Z,98700.81
2022-09-20T02:44:57.538Z,98698.56
2022-09-20T02:47:34.145Z,98703.69
2022-09-20T02:50:20.698Z,98692.38
2022-09-20T02:53:07.326Z,98695.91
2022-09-20T02:55:45.703Z,98696.88
2022-09-20T02:58:35.068Z,98698.56
2022-09-20T03:01:11.125Z,98707.00
2022-09-20T03:03:51.892Z,98699.28
2022-09-20T03:06:32.836Z,98705.56
2022-09-20T03:09:12.699Z,98706.47
2022-09-20T03:11:52.573Z,98705.56
2022-09-20T03:14:27.619Z,98706.34
2022-09-20T03:17:08.026Z,98710.66
2022-09-20T03:19:52.542Z,98708.75
2022-09-20T03:22:35.508Z,98711.34
2022-09-20T03:25:36.938Z,98720.34
2022-09-20T03:28:36.694Z,98709.94
2022-09-20T03:31:18.908Z,98718.50
2022-09-20T03:33:59.418Z,98721.81
2022-09-20T03:36:48.611Z,98726.66
2022-09-20T03:39:41.383Z,98723.28
2022-09-20T03:42:19.697Z,98711.97
2022-09-20T03:45:24.142Z,98719.81
2022-09-20T03:48:21.383Z,98714.72
2022-09-20T03:51:05.707Z,98724.91
2022-09-20T03:54:24.409Z,98721.25
2022-09-20T03:57:59.402Z,98729.81
2022-09-20T04:00:46.380Z,98723.91
2022-09-20T04:03:41.686Z,98728.78
2022-09-20T04:06:42.329Z,98721.84
2022-09-20T04:09:39.599Z,98725.25
2022-09-20T04:12:18.978Z,98736.41
2022-09-20T04:14:56.929Z,98727.66
2022-09-20T04:17:40.418Z,98725.06
2022-09-20T04:20:20.557Z,98733.59
2022-09-20T04:22:52.503Z,98730.19
2022-09-20T04:25:27.658Z,98722.38
2022-09-20T04:28:01.626Z,98734.50
2022-09-20T04:30:38.984Z,98737.72
2022-09-20T04:33:20.755Z,98731.31
2022-09-20T04:36:17.272Z,98736.28
2022-09-20T04:38:49.702Z,98734.66
2022-09-20T04:41:37.892Z,98739.22
2022-09-20T04:44:49.374Z,98734.22
2022-09-20T04:48:00.310Z,98739.28
2022-09-20T04:51:06.738Z,98748.84
2022-09-20T04:54:16.407Z,98752.44
2022-09-20T04:57:12.904Z,98747.06
2022-09-20T05:00:00.988Z,98747.19
2022-09-20T05:03:11.916Z,98758.31
2022-09-20T05:06:08.521Z,98760.72
2022-09-20T05:09:15.886Z,98766.00
2022-09-20T05:12:49.279Z,98763.44
2022-09-20T05:15:39.324Z,98771.28
2022-09-20T05:18:33.029Z,98774.88
2022-09-20T05:21:31.295Z,98771.50
2022-09-20T05:24:48.735Z,98766.22
2022-09-20T05:27:36.983Z,98774.69
2022-09-20T05:30:12.130Z,98785.81
2022-09-20T05:32:47.285Z,98779.00
2022-09-20T05:35:24.088Z,98782.53
2022-09-20T05:38:02.907Z,98783.25
2022-09-20T05:40:39.858Z,98781.47
2022-09-20T05:43:12.583Z,98779.03
2022-09-20T05:45:55.817Z,98783.34
2022-09-20T05:48:35.948Z,98788.56
2022-09-20T05:51:15.291Z,98787.19
2022-09-20T05:54:05.160Z,98800.00
2022-09-20T05:56:46.853Z,98804.22
2022-09-20T05:59:44.853Z,98806.78
2022-09-20T06:02:29.570Z,98802.47
2022-09-20T06:05:06.125Z,98805.97
2022-09-20T06:07:57.641Z,98811.03
2022-09-20T06:10:48.452Z,98807.53
2022-09-20T06:13:36.321Z,98810.97
2022-09-20T06:16:07.365Z,98807.50
2022-09-20T06:18:44.460Z,98805.75
2022-09-20T06:21:26.166Z,98815.06
2022-09-20T06:23:59.888Z,98807.31
2022-09-20T06:26:36.785Z,98810.75
2022-09-20T06:29:08.246Z,98814.16
2022-09-20T06:31:36.768Z,98812.38
2022-09-20T06:34:09.920Z,98808.88
2022-09-20T06:36:58.598Z,98810.56
2022-09-20T06:39:55.330Z,98813.78
2022-09-20T06:42:27.331Z,98815.50
2022-09-20T06:44:56.473Z,98825.66
2022-09-20T06:47:26.861Z,98823.97
2022-09-20T06:49:55.530Z,98829.03
2022-09-20T06:52:24.477Z,98829.03
2022-09-20T06:54:56.073Z,98829.53
2022-09-20T06:57:32.430Z,98835.50
2022-09-20T07:00:00.688Z,98831.19
2022-09-20T07:02:29.008Z,98843.97
2022-09-20T07:04:59.166Z,98824.84
2022-09-20T07:07:27.627Z,98820.72
2022-09-20T07:09:55.869Z,98843.91
2022-09-20T07:12:25.599Z,98831.75
2022-09-20T07:14:54.368Z,98828.22
2022-09-20T07:17:22.605Z,98834.13
2022-09-20T07:19:51.005Z,98836.78
2022-09-20T07:22:19.359Z,98834.56
2022-09-20T07:24:48.239Z,98847.38
2022-09-20T07:27:17.382Z,98845.78
2022-09-20T07:29:47.603Z,98845.69
2022-09-20T07:32:17.847Z,98842.94
2022-09-20T07:34:46.369Z,98839.47
2022-09-20T07:37:14.885Z,98846.66
2022-09-20T07:39:43.227Z,98845.75
2022-09-20T07:42:11.489Z,98837.16
2022-09-20T07:44:43.405Z,98848.38
2022-09-20T07:50:00.504Z,98850.72
2022-09-20T07:52:28.972Z,98850.72
2022-09-20T07:54:57.512Z,98855.94
2022-09-20T07:57:26.331Z,98852.41
2022-09-20T07:59:54.611Z,98849.81
2022-09-20T08:02:24.253Z,98847.25
2022-09-20T08:04:52.649Z,98856.47
2022-09-20T08:07:21.247Z,98860.53
2022-09-20T08:09:50.544Z,98860.44
2022-09-20T08:15:12.011Z,98863.53
2022-09-20T08:17:41.917Z,98865.09
2022-09-20T08:20:10.966Z,98870.81
2022-09-20T08:22:41.979Z,98863.78
2022-09-20T08:25:10.995Z,98868.50
2022-09-20T08:27:39.349Z,98870.91
2022-09-20T08:30:09.638Z,98870.78
2022-09-20T08:32:41.291Z,98868.72
2022-09-20T08:35:11.756Z,98872.09
2022-09-20T08:37:40.185Z,98866.53
2022-09-20T08:40:10.877Z,98863.03
2022-09-20T08:42:44.422Z,98863.53
2022-09-20T08:45:34.513Z,98866.69
2022-09-20T08:48:08.560Z,98862.94
2022-09-20T08:50:38.252Z,98858.34
2022-09-20T08:53:06.844Z,98856.13
2022-09-20T08:55:39.477Z,98865.56
2022-09-20T08:58:12.118Z,98866.31
2022-09-20T09:00:42.031Z,98871.34
2022-09-20T09:03:16.959Z,98868.00
2022-09-20T09:05:46.330Z,98866.88
2022-09-20T09:08:18.563Z,98866.66
2022-09-20T09:10:54.058Z,98864.78
2022-09-20T09:13:28.615Z,98868.19
2022-09-20T09:16:01.097Z,98873.22
2022-09-20T09:18:36.131Z,98868.97
2022-09-20T09:21:05.998Z,98877.34
2022-09-20T09:23:42.340Z,98859.91
2022-09-20T09:26:21.233Z,98860.78
2022-09-20T09:29:10.506Z,98866.66
2022-09-20T09:31:39.603Z,98858.06
2022-09-20T09:34:26.058Z,98856.41
2022-09-20T09:36:55.349Z,98861.28
2022-09-20T09:39:29.543Z,98858.56
2022-09-20T09:42:01.147Z,98853.25
2022-09-20T09:44:32.886Z,98856.53
2022-09-20T09:47:01.994Z,98848.69
2022-09-20T09:49:36.100Z,98852.81
2022-09-20T09:52:14.833Z,98853.72
2022-09-20T09:54:48.958Z,98851.00
2022-09-20T09:57:39.974Z,98854.97
2022-09-20T10:00:20.811Z,98859.09
2022-09-20T10:03:12.637Z,98854.53
2022-09-20T10:05:55.079Z,98853.56
2022-09-20T10:08:35.296Z,98842.97
2022-09-20T10:11:18.120Z,98849.44
2022-09-20T10:13:59.351Z,98850.03
2022-09-20T10:16:39.660Z,98842.56
2022-09-20T10:19:19.467Z,98838.47
2022-09-20T10:22:01.214Z,98845.28
2022-09-20T10:24:42.632Z,98840.44
2022-09-20T10:27:36.810Z,98842.25
2022-09-20T10:30:12.856Z,98838.09
2022-09-20T10:33:01.631Z,98846.59
2022-09-20T10:35:52.525Z,98839.91
2022-09-20T10:38:26.740Z,98844.25
2022-09-20T10:41:31.795Z,98839.75
2022-09-20T10:44:18.371Z,98846.16
2022-09-20T10:46:55.660Z,98837.31
2022-09-20T10:49:34.344Z,98844.09
2022-09-20T10:52:34.510Z,98849.16
2022-09-20T10:55:25.557Z,98843.00
2022-09-20T10:58:46.570Z,98843.91
2022-09-20T11:01:24.021Z,98836.66
2022-09-20T11:04:15.722Z,98840.19
2022-09-20T11:06:54.079Z,98841.84
2022-09-20T11:09:26.696Z,98845.97
2022-09-20T11:12:04.627Z,98846.13
2022-09-20T11:14:38.650Z,98856.03
2022-09-20T11:17:15.833Z,98851.97
2022-09-20T11:19:55.379Z,98851.13
2022-09-20T11:22:31.650Z,98835.44
2022-09-20T11:25:07.598Z,98845.88
2022-09-20T11:27:42.648Z,98841.50
2022-09-20T11:30:19.134Z,98841.28
2022-09-20T11:32:53.021Z,98833.53
2022-09-20T11:35:31.116Z,98824.97
2022-09-20T11:38:11.239Z,98832.28
2022-09-20T11:40:46.832Z,98826.78
2022-09-20T11:43:18.337Z,98824.34
2022-09-20T11:45:52.243Z,98826.53
2022-09-20T11:48:27.301Z,98827.38
2022-09-20T11:52:04.106Z,98825.72
2022-09-20T11:55:14.878Z,98820.66
2022-09-20T11:57:43.474Z,98829.31
2022-09-20T12:00:13.916Z,98827.47
2022-09-20T12:02:50.329Z,98821.25
2022-09-20T12:05:30.395Z,98808.88
2022-09-20T12:08:01.313Z,98807.34
2022-09-20T12:10:34.164Z,98807.69
2022-09-20T12:13:06.558Z,98806.69
2022-09-20T12:15:39.841Z,98804.72
2022-09-20T12:18:53.545Z,98807.97
2022-09-20T12:21:23.532Z,98809.47
2022-09-20T12:24:23.558Z,98805.44
2022-09-20T12:26:58.121Z,98799.03
2022-09-20T12:30:07.406Z,98808.78
2022-09-20T12:32:47.938Z,98794.34
2022-09-20T12:36:00.571Z,98796.31
2022-09-20T12:38:50.593Z,98788.81
2022-09-20T12:41:28.342Z,98790.06
2022-09-20T12:44:06.465Z,98793.50
2022-09-20T12:46:42.027Z,98789.00
2022-09-20T12:49:59.947Z,98804.06
2022-09-20T12:52:53.595Z,98784.50
2022-09-20T12:55:45.830Z,98796.06
2022-09-20T12:58:34.882Z,98784.63
2022-09-20T13:01:36.872Z,98792.03
2022-09-20T13:04:56.221Z,98782.34
2022-09-20T13:07:43.958Z,98790.47
2022-09-20T13:10:26.287Z,98788.63
2022-09-20T13:13:02.321Z,98785.94
2022-09-20T13:15:33.047Z,98781.47
2022-09-20T13:18:03.399Z,98789.56
2022-09-20T13:20:35.566Z,98773.59
2022-09-20T13:23:06.315Z,98769.53
2022-09-20T13:25:35.803Z,98774.22
2022-09-20T13:28:11.097Z,98777.13
2022-09-20T13:30:41.985Z,98784.03
2022-09-20T13:33:22.392Z,98782.78
2022-09-20T13:35:58.635Z,98783.81
2022-09-20T13:38:31.708Z,98783.84
2022-09-20T13:41:06.308Z,98789.59
2022-09-20T13:43:39.150Z,98785.53
2022-09-20T13:46:16.998Z,98784.28
2022-09-20T13:48:48.249Z,98786.38
2022-09-20T13:51:24.570Z,98790.31
2022-09-20T13:53:53.031Z,98786.53
2022-09-20T13:56:25.458Z,98783.09
2022-09-20T13:58:54.508Z,98786.34
2022-09-20T14:01:28.665Z,98787.69
2022-09-20T14:04:57.790Z,98790.28
2022-09-20T14:07:28.109Z,98807.75
2022-09-20T14:09:58.833Z,98797.78
2022-09-20T14:12:28.776Z,98796.16
2022-09-20T14:14:57.608Z,98813.69
2022-09-20T14:17:26.799Z,98811.41
2022-09-20T14:19:57.695Z,98814.84
2022-09-20T14:22:29.242Z,98815.81
2022-09-20T14:25:01.425Z,98823.81
2022-09-20T14:27:31.273Z,98820.00
2022-09-20T14:30:00.140Z,98815.13
2022-09-20T14:32:39.746Z,98815.13
2022-09-20T14:35:17.723Z,98817.19
2022-09-20T14:37:49.988Z,98809.56
2022-09-20T14:40:24.220Z,98806.03
2022-09-20T14:42:58.039Z,98807.13
2022-09-20T14:45:31.226Z,98805.97
2022-09-20T14:48:10.339Z,98804.75
2022-09-20T14:50:43.232Z,98800.97
2022-09-20T14:53:27.731Z,98799.00
2022-09-20T14:56:08.937Z,98812.41
2022-09-20T14:59:20.711Z,98799.47
2022-09-20T15:02:00.774Z,98807.28
2022-09-20T15:04:29.593Z,98798.47
2022-09-20T15:07:03.267Z,98802.19
2022-09-20T15:09:31.653Z,98802.91
2022-09-20T15:12:05.213Z,98802.91
2022-09-20T15:14:37.660Z,98795.88
2022-09-20T15:17:06.888Z,98791.94
2022-09-20T15:19:35.182Z,98798.81
2022-09-20T15:22:05.328Z,98799.19
2022-09-20T15:24:33.652Z,98803.44
2022-09-20T15:27:01.934Z,98803.06
2022-09-20T15:29:30.710Z,98799.28
2022-09-20T15:31:59.486Z,98795.97
2022-09-20T15:34:27.967Z,98801.19
2022-09-20T15:36:56.472Z,98791.13
2022-09-20T15:39:26.640Z,98793.84
2022-09-20T15:41:55.392Z,98797.81
2022-09-20T15:44:24.532Z,98798.41
2022-09-20T15:46:53.251Z,98792.00
2022-09-20T15:49:22.294Z,98794.28
2022-09-20T15:51:50.556Z,98791.84
2022-09-20T15:54:19.098Z,98789.44
2022-09-20T15:56:48.837Z,98789.31
2022-09-20T15:59:17.386Z,98790.84
2022-09-20T16:01:48.089Z,98780.13
2022-09-20T16:04:19.486Z,98784.03
2022-09-20T16:06:50.014Z,98790.63
2022-09-20T16:12:36.090Z,98785.25
2022-09-20T16:18:31.517Z,98787.69
2022-09-20T16:21:08.907Z,98784.09
2022-09-20T16:23:38.893Z,98795.66
2022-09-20T16:26:09.635Z,98787.38
2022-09-20T16:28:40.573Z,98797.28
2022-09-20T16:31:32.659Z,98796.97
2022-09-20T16:34:02.539Z,98798.22
2022-09-20T16:36:31.284Z,98799.16
2022-09-20T16:39:00.003Z,98799.50
2022-09-20T16:41:30.109Z,98803.97
2022-09-20T16:43:59.914Z,98814.88
2022-09-20T16:46:28.513Z,98811.34
2022-09-20T16:49:00.788Z,98807.72
2022-09-20T16:51:34.054Z,98814.09
2022-09-20T16:54:04.359Z,98819.91
2022-09-20T16:56:35.715Z,98824.72
2022-09-20T16:59:07.457Z,98816.59
2022-09-20T17:01:37.708Z,98813.97
2022-09-20T17:04:06.827Z,98822.31
2022-09-20T17:06:37.033Z,98821.78
2022-09-20T17:09:06.912Z,98820.44
2022-09-20T17:11:37.609Z,98821.78
2022-09-20T17:14:08.712Z,98827.63
2022-09-20T17:16:40.270Z,98829.66
2022-09-20T17:19:11.064Z,98837.91
2022-09-20T17:21:43.350Z,98840.50
2022-09-20T17:24:11.678Z,98841.22
2022-09-20T17:26:44.304Z,98842.44
2022-09-20T17:29:16.860Z,98847.53
2022-09-20T17:31:53.249Z,98846.94
2022-09-20T17:34:23.046Z,98848.47
2022-09-20T17:36:51.673Z,98856.56
2022-09-20T17:39:20.138Z,98861.22
2022-09-20T17:41:50.680Z,98859.63
2022-09-20T17:44:20.638Z,98859.28
2022-09-20T17:46:51.072Z,98858.75
2022-09-20T17:49:21.617Z,98861.06
2022-09-20T17:51:52.544Z,98868.88
2022-09-20T17:54:21.903Z,98868.34
2022-09-20T17:56:52.239Z,98875.69
2022-09-20T17:59:22.497Z,98870.88
2022-09-20T18:01:54.267Z,98878.19
2022-09-20T18:04:24.290Z,98883.69
2022-09-20T18:06:54.773Z,98892.44
2022-09-20T18:09:25.430Z,98886.09
2022-09-20T18:11:55.738Z,98886.44
2022-09-20T18:14:27.292Z,98884.97
2022-09-20T18:16:57.988Z,98887.84
2022-09-20T18:19:32.653Z,98891.56
2022-09-20T18:22:01.963Z,98892.94
2022-09-20T18:24:31.746Z,98897.44
2022-09-20T18:27:01.594Z,98894.28
2022-09-20T18:29:36.523Z,98896.13
2022-09-20T18:32:06.314Z,98909.50
2022-09-20T18:34:34.668Z,98912.44
2022-09-20T18:37:04.825Z,98915.31
2022-09-20T18:39:34.773Z,98918.25
2022-09-20T18:42:04.453Z,98921.88
2022-09-20T18:44:34.327Z,98916.19
2022-09-20T18:47:03.901Z,98915.59
2022-09-20T18:49:34.355Z,98915.84
2022-09-20T18:52:03.698Z,98927.41
2022-09-20T18:54:33.430Z,98934.63
2022-09-20T18:57:02.841Z,98939.31
2022-09-20T18:59:33.077Z,98943.84
2022-09-20T19:02:41.734Z,98936.47
2022-09-20T19:05:19.052Z,98946.34
2022-09-20T19:08:25.490Z,98944.84
2022-09-20T19:10:57.576Z,98950.38
2022-09-20T19:13:39.343Z,98956.03
2022-09-20T19:16:19.258Z,98957.91
2022-09-20T19:19:21.398Z,98973.94
2022-09-20T19:21:59.851Z,98975.00
2022-09-20T19:25:01.390Z,98974.28
2022-09-20T19:27:30.399Z,98976.94
2022-09-20T19:29:59.688Z,98977.91
2022-09-20T19:32:31.181Z,98985.00
2022-09-20T19:35:01.805Z,98979.88
2022-09-20T19:37:38.902Z,98989.44
2022-09-20T19:40:27.135Z,98986.25
2022-09-20T19:43:13.177Z,98996.91
2022-09-20T19:45:51.945Z,98991.22
2022-09-20T19:48:33.913Z,98988.00
2022-09-20T19:51:08.098Z,98995.88
2022-09-20T19:53:37.322Z,98999.59
2022-09-20T19:56:21.398Z,98992.16
2022-09-20T19:58:53.024Z,98988.97
2022-09-20T20:01:23.183Z,98996.19
2022-09-20T20:03:55.218Z,98997.28
2022-09-20T20:06:30.969Z,98994.91
2022-09-20T20:09:09.250Z,98989.03
2022-09-20T20:11:47.237Z,98992.59
2022-09-20T20:14:24.387Z,98994.50
2022-09-20T20:17:05.368Z,98998.84
2022-09-20T20:20:10.612Z,99003.44
2022-09-20T20:23:36.257Z,99008.81
2022-09-20T20:26:10.137Z,99004.69
2022-09-20T20:28:39.539Z,99002.97
2022-09-20T20:31:12.515Z,99009.19
2022-09-20T20:33:41.250Z,99011.16
2022-09-20T20:36:12.340Z,99009.03
2022-09-20T20:38:49.467Z,99016.09
2022-09-20T20:41:21.458Z,99010.44
2022-09-20T20:43:56.021Z,99015.75
2022-09-20T20:46:25.056Z,99007.38
2022-09-20T20:48:53.561Z,99011.06
2022-09-20T20:51:24.160Z,99012.06
2022-09-20T20:53:54.866Z,99008.78
2022-09-20T20:56:26.249Z,99010.84
2022-09-20T20:58:55.098Z,99010.06
2022-09-20T21:01:25.959Z,99003.44
2022-09-20T21:03:58.884Z,99012.19
2022-09-20T21:06:31.859Z,99016.72
2022-09-20T21:09:00.438Z,99013.34
2022-09-20T21:11:32.406Z,99015.19
2022-09-20T21:14:03.400Z,99011.94
2022-09-20T21:16:35.035Z,99012.06
2022-09-20T21:19:05.180Z,99014.03
2022-09-20T21:21:37.396Z,99019.41
2022-09-20T21:24:08.554Z,99020.34
2022-09-20T21:26:38.481Z,99019.63
2022-09-20T21:29:08.593Z,99019.75
2022-09-20T21:31:39.110Z,99020.81
2022-09-20T21:34:08.122Z,99020.09
2022-09-20T21:36:41.479Z,99018.59
2022-09-20T21:39:10.161Z,99015.97
2022-09-20T21:41:40.559Z,99018.09
2022-09-20T21:44:11.028Z,99024.31
2022-09-20T21:46:41.091Z,99021.09
2022-09-20T21:49:11.280Z,99026.38
2022-09-20T21:51:42.754Z,99021.47
2022-09-20T21:54:12.006Z,99023.16
2022-09-20T21:56:41.784Z,99028.63
2022-09-20T21:59:10.344Z,99020.06
2022-09-20T22:01:41.416Z,99021.22
2022-09-20T22:04:12.001Z,99036.06
2022-09-20T22:06:43.569Z,99037.16
2022-09-20T22:09:14.068Z,99031.38
2022-09-20T22:11:44.795Z,99023.78
2022-09-20T22:14:15.669Z,99016.28
2022-09-20T22:16:45.784Z,99020.78
2022-09-20T22:19:17.501Z,99024.44
2022-09-20T22:21:49.472Z,99023.72
2022-09-20T22:24:18.951Z,99016.16
2022-09-20T22:26:49.666Z,99010.41
2022-09-20T22:29:19.330Z,99012.19
2022-09-20T22:31:50.070Z,99011.59
2022-09-20T22:34:20.729Z,99013.50
2022-09-20T22:36:52.014Z,99011.16
2022-09-20T22:39:20.325Z,99011.22
2022-09-20T22:41:49.301Z,99019.88
2022-09-20T22:44:17.781Z,99013.16
2022-09-20T22:46:46.207Z,99009.06
2022-09-20T22:49:14.491Z,99017.78
2022-09-20T22:51:42.860Z,99018.66
2022-09-20T22:54:13.860Z,99031.53
2022-09-20T22:56:42.654Z,99024.16
2022-09-20T22:59:13.783Z,99019.91
2022-09-20T23:01:43.892Z,99021.63
2022-09-20T23:04:14.764Z,99025.94
2022-09-20T23:06:46.897Z,99022.81
2022-09-20T23:09:18.694Z,99033.50
2022-09-20T23:11:48.118Z,99025.84
2022-09-20T23:14:18.895Z,99022.44
2022-09-20T23:16:48.439Z,99031.91
2022-09-20T23:19:17.740Z,99019.94
2022-09-20T23:21:46.562Z,99019.97
2022-09-20T23:24:16.808Z,99019.03
2022-09-20T23:26:45.611Z,99030.28
2022-09-20T23:29:17.037Z,99030.34
2022-09-20T23:31:47.774Z,99028.78
2022-09-20T23:34:17.879Z,99030.81
2022-09-20T23:36:47.536Z,99032.56
2022-09-20T23:39:17.588Z,99029.34
2022-09-20T23:41:50.638Z,99026.94
2022-09-20T23:44:19.565Z,99037.38
2022-09-20T23:46:48.032Z,99028.06
2022-09-20T23:49:16.519Z,99030.91
2022-09-20T23:51:44.804Z,99032.88
2022-09-20T23:54:13.279Z,99029.56
2022-09-20T23:56:42.902Z,99033.09
2022-09-20T23:59:11.231Z,99034.81
